sensor_id;sensor_type;location;lat;lon;timestamp;temperature;humidity
41220;DHT22;26951;47.338;9.196;2024-01-15T00:01:17;1.50;75.00
41220;DHT22;26951;47.338;9.196;2024-01-15T00:04:01;1.50;75.50
41220;DHT22;26951;47.338;9.196;2024-01-15T00:06:45;1.50;75.40
41220;DHT22;26951;47.338;9.196;2024-01-15T00:09:29;1.60;74.70
41220;DHT22;26951;47.338;9.196;2024-01-15T00:12:13;1.60;73.60
41220;DHT22;26951;47.338;9.196;2024-01-15T00:14:57;1.60;73.10
41220;DHT22;26951;47.338;9.196;2024-01-15T00:17:41;1.70;73.10
41220;DHT22;26951;47.338;9.196;2024-01-15T00:20:25;1.60;73.30
41220;DHT22;26951;47.338;9.196;2024-01-15T00:23:10;1.60;73.90
41220;DHT22;26951;47.338;9.196;2024-01-15T00:25:54;1.60;73.10
41220;DHT22;26951;47.338;9.196;2024-01-15T00:28:38;1.70;73.20
41220;DHT22;26951;47.338;9.196;2024-01-15T00:31:22;1.70;72.70
41220;DHT22;26951;47.338;9.196;2024-01-15T00:34:06;1.70;72.30
41220;DHT22;26951;47.338;9.196;2024-01-15T00:36:50;1.70;72.20
41220;DHT22;26951;47.338;9.196;2024-01-15T00:39:34;1.70;72.10
41220;DHT22;26951;47.338;9.196;2024-01-15T00:42:19;1.70;71.30
41220;DHT22;26951;47.338;9.196;2024-01-15T00:45:03;1.70;70.00
41220;DHT22;26951;47.338;9.196;2024-01-15T00:47:49;1.80;69.50
41220;DHT22;26951;47.338;9.196;2024-01-15T00:50:34;1.80;69.90
41220;DHT22;26951;47.338;9.196;2024-01-15T00:53:18;1.80;69.40
41220;DHT22;26951;47.338;9.196;2024-01-15T00:56:02;1.80;69.70
41220;DHT22;26951;47.338;9.196;2024-01-15T00:58:47;1.70;69.80
41220;DHT22;26951;47.338;9.196;2024-01-15T01:01:31;1.70;70.30
41220;DHT22;26951;47.338;9.196;2024-01-15T01:04:15;1.70;71.20
41220;DHT22;26951;47.338;9.196;2024-01-15T01:07:00;1.70;70.40
41220;DHT22;26951;47.338;9.196;2024-01-15T01:09:44;1.70;69.70
41220;DHT22;26951;47.338;9.196;2024-01-15T01:12:29;1.70;69.70
41220;DHT22;26951;47.338;9.196;2024-01-15T01:15:14;1.70;69.60
41220;DHT22;26951;47.338;9.196;2024-01-15T01:17:58;1.70;70.30
41220;DHT22;26951;47.338;9.196;2024-01-15T01:20:42;1.70;69.90
41220;DHT22;26951;47.338;9.196;2024-01-15T01:23:26;1.70;70.10
41220;DHT22;26951;47.338;9.196;2024-01-15T01:26:10;1.70;70.10
41220;DHT22;26951;47.338;9.196;2024-01-15T01:28:54;1.60;70.60
41220;DHT22;26951;47.338;9.196;2024-01-15T01:31:45;1.60;70.60
41220;DHT22;26951;47.338;9.196;2024-01-15T01:34:29;1.60;70.70
41220;DHT22;26951;47.338;9.196;2024-01-15T01:37:14;1.70;69.80
41220;DHT22;26951;47.338;9.196;2024-01-15T01:40:05;1.60;70.10
41220;DHT22;26951;47.338;9.196;2024-01-15T01:42:49;1.60;70.40
41220;DHT22;26951;47.338;9.196;2024-01-15T01:45:33;1.60;70.30
41220;DHT22;26951;47.338;9.196;2024-01-15T01:48:17;1.50;70.30
41220;DHT22;26951;47.338;9.196;2024-01-15T01:51:03;1.50;70.50
41220;DHT22;26951;47.338;9.196;2024-01-15T01:53:48;1.60;69.90
41220;DHT22;26951;47.338;9.196;2024-01-15T01:56:33;1.60;68.50
41220;DHT22;26951;47.338;9.196;2024-01-15T01:59:18;1.60;69.30
41220;DHT22;26951;47.338;9.196;2024-01-15T02:07:05;1.60;68.40
41220;DHT22;26951;47.338;9.196;2024-01-15T02:09:49;1.60;68.20
41220;DHT22;26951;47.338;9.196;2024-01-15T02:12:34;1.60;68.10
41220;DHT22;26951;47.338;9.196;2024-01-15T02:15:18;1.60;67.20
41220;DHT22;26951;47.338;9.196;2024-01-15T02:18:04;1.60;66.50
41220;DHT22;26951;47.338;9.196;2024-01-15T02:20:48;1.60;67.00
41220;DHT22;26951;47.338;9.196;2024-01-15T02:23:32;1.60;67.30
41220;DHT22;26951;47.338;9.196;2024-01-15T02:26:17;1.60;65.50
41220;DHT22;26951;47.338;9.196;2024-01-15T02:29:02;1.50;65.70
41220;DHT22;26951;47.338;9.196;2024-01-15T02:31:46;1.50;64.80
41220;DHT22;26951;47.338;9.196;2024-01-15T02:34:33;1.50;64.50
41220;DHT22;26951;47.338;9.196;2024-01-15T02:37:17;1.50;64.20
41220;DHT22;26951;47.338;9.196;2024-01-15T02:40:01;1.50;63.70
41220;DHT22;26951;47.338;9.196;2024-01-15T02:42:45;1.50;61.80
41220;DHT22;26951;47.338;9.196;2024-01-15T02:45:30;1.60;61.30
41220;DHT22;26951;47.338;9.196;2024-01-15T02:48:14;1.60;60.90
41220;DHT22;26951;47.338;9.196;2024-01-15T02:50:58;1.50;60.00
41220;DHT22;26951;47.338;9.196;2024-01-15T02:53:42;1.50;60.60
41220;DHT22;26951;47.338;9.196;2024-01-15T02:56:27;1.50;58.20
41220;DHT22;26951;47.338;9.196;2024-01-15T02:59:11;1.60;57.40
41220;DHT22;26951;47.338;9.196;2024-01-15T03:01:55;1.50;57.10
41220;DHT22;26951;47.338;9.196;2024-01-15T03:04:46;1.50;56.70
41220;DHT22;26951;47.338;9.196;2024-01-15T03:07:30;1.50;56.10
41220;DHT22;26951;47.338;9.196;2024-01-15T03:10:14;1.50;56.00
41220;DHT22;26951;47.338;9.196;2024-01-15T03:12:59;1.40;55.60
41220;DHT22;26951;47.338;9.196;2024-01-15T03:15:43;1.40;56.10
41220;DHT22;26951;47.338;9.196;2024-01-15T03:18:27;1.40;55.90
41220;DHT22;26951;47.338;9.196;2024-01-15T03:21:11;1.30;57.10
41220;DHT22;26951;47.338;9.196;2024-01-15T03:23:55;1.20;58.30
41220;DHT22;26951;47.338;9.196;2024-01-15T03:26:40;1.30;59.50
41220;DHT22;26951;47.338;9.196;2024-01-15T03:29:25;1.20;59.80
41220;DHT22;26951;47.338;9.196;2024-01-15T03:32:09;1.10;60.50
41220;DHT22;26951;47.338;9.196;2024-01-15T03:34:54;1.20;60.20
41220;DHT22;26951;47.338;9.196;2024-01-15T03:37:38;1.20;61.50
41220;DHT22;26951;47.338;9.196;2024-01-15T03:40:22;1.10;62.10
41220;DHT22;26951;47.338;9.196;2024-01-15T03:43:06;1.00;63.30
41220;DHT22;26951;47.338;9.196;2024-01-15T03:45:50;1.00;63.70
41220;DHT22;26951;47.338;9.196;2024-01-15T03:48:34;1.00;64.00
41220;DHT22;26951;47.338;9.196;2024-01-15T03:51:19;1.00;64.40
41220;DHT22;26951;47.338;9.196;2024-01-15T03:54:03;1.00;64.20
41220;DHT22;26951;47.338;9.196;2024-01-15T03:56:48;1.00;64.50
41220;DHT22;26951;47.338;9.196;2024-01-15T03:59:32;1.00;64.40
41220;DHT22;26951;47.338;9.196;2024-01-15T04:02:16;1.00;64.70
41220;DHT22;26951;47.338;9.196;2024-01-15T04:05:00;1.00;65.30
41220;DHT22;26951;47.338;9.196;2024-01-15T04:07:44;1.00;65.60
41220;DHT22;26951;47.338;9.196;2024-01-15T04:10:28;1.00;65.20
41220;DHT22;26951;47.338;9.196;2024-01-15T04:13:12;0.90;65.00
41220;DHT22;26951;47.338;9.196;2024-01-15T04:15:56;0.90;65.20
41220;DHT22;26951;47.338;9.196;2024-01-15T04:18:40;1.00;64.80
41220;DHT22;26951;47.338;9.196;2024-01-15T04:21:24;0.90;63.50
41220;DHT22;26951;47.338;9.196;2024-01-15T04:24:08;0.80;64.40
41220;DHT22;26951;47.338;9.196;2024-01-15T04:26:52;0.70;65.20
41220;DHT22;26951;47.338;9.196;2024-01-15T04:29:39;0.70;64.90
41220;DHT22;26951;47.338;9.196;2024-01-15T04:32:23;0.60;65.00
41220;DHT22;26951;47.338;9.196;2024-01-15T04:35:08;0.60;64.60
41220;DHT22;26951;47.338;9.196;2024-01-15T04:37:52;0.50;64.10
41220;DHT22;26951;47.338;9.196;2024-01-15T04:40:36;0.50;64.20
41220;DHT22;26951;47.338;9.196;2024-01-15T04:43:20;0.40;63.60
41220;DHT22;26951;47.338;9.196;2024-01-15T04:46:08;0.30;63.30
41220;DHT22;26951;47.338;9.196;2024-01-15T04:48:53;0.20;63.30
41220;DHT22;26951;47.338;9.196;2024-01-15T04:51:37;0.20;62.80
41220;DHT22;26951;47.338;9.196;2024-01-15T04:54:21;0.10;61.90
41220;DHT22;26951;47.338;9.196;2024-01-15T04:57:05;0.10;62.10
41220;DHT22;26951;47.338;9.196;2024-01-15T04:59:50;0.00;60.50
41220;DHT22;26951;47.338;9.196;2024-01-15T05:02:34;0.00;60.40
41220;DHT22;26951;47.338;9.196;2024-01-15T05:05:18;0.00;59.90
41220;DHT22;26951;47.338;9.196;2024-01-15T05:08:02;-0.10;60.70
41220;DHT22;26951;47.338;9.196;2024-01-15T05:10:47;-0.10;59.20
41220;DHT22;26951;47.338;9.196;2024-01-15T05:13:31;-0.10;59.80
41220;DHT22;26951;47.338;9.196;2024-01-15T05:16:16;-0.20;57.30
41220;DHT22;26951;47.338;9.196;2024-01-15T05:19:00;-0.20;58.30
41220;DHT22;26951;47.338;9.196;2024-01-15T05:21:44;-0.30;58.70
41220;DHT22;26951;47.338;9.196;2024-01-15T05:24:28;-0.30;59.20
41220;DHT22;26951;47.338;9.196;2024-01-15T05:27:12;-0.40;58.90
41220;DHT22;26951;47.338;9.196;2024-01-15T05:29:56;-0.40;58.10
41220;DHT22;26951;47.338;9.196;2024-01-15T05:32:40;-0.50;57.90
41220;DHT22;26951;47.338;9.196;2024-01-15T05:35:24;-0.40;57.80
41220;DHT22;26951;47.338;9.196;2024-01-15T05:38:09;-0.40;57.90
41220;DHT22;26951;47.338;9.196;2024-01-15T05:40:53;-0.40;58.00
41220;DHT22;26951;47.338;9.196;2024-01-15T05:43:37;-0.40;58.30
41220;DHT22;26951;47.338;9.196;2024-01-15T05:46:22;-0.50;58.10
41220;DHT22;26951;47.338;9.196;2024-01-15T05:49:06;-0.40;58.20
41220;DHT22;26951;47.338;9.196;2024-01-15T05:51:50;-0.40;58.00
41220;DHT22;26951;47.338;9.196;2024-01-15T05:54:35;-0.50;57.30
41220;DHT22;26951;47.338;9.196;2024-01-15T05:57:19;-0.50;58.10
41220;DHT22;26951;47.338;9.196;2024-01-15T06:00:04;-0.50;57.60
41220;DHT22;26951;47.338;9.196;2024-01-15T06:02:48;-0.50;58.30
41220;DHT22;26951;47.338;9.196;2024-01-15T06:05:32;-0.50;58.10
41220;DHT22;26951;47.338;9.196;2024-01-15T06:08:17;-0.50;57.30
41220;DHT22;26951;47.338;9.196;2024-01-15T06:11:03;-0.60;57.70
41220;DHT22;26951;47.338;9.196;2024-01-15T06:13:47;-0.50;58.00
41220;DHT22;26951;47.338;9.196;2024-01-15T06:16:31;-0.50;57.70
41220;DHT22;26951;47.338;9.196;2024-01-15T06:19:15;-0.60;56.80
41220;DHT22;26951;47.338;9.196;2024-01-15T06:22:00;-0.50;57.50
41220;DHT22;26951;47.338;9.196;2024-01-15T06:24:44;-0.50;57.10
41220;DHT22;26951;47.338;9.196;2024-01-15T06:27:28;-0.50;57.30
41220;DHT22;26951;47.338;9.196;2024-01-15T06:30:12;-0.50;58.70
41220;DHT22;26951;47.338;9.196;2024-01-15T06:32:56;-0.50;58.10
41220;DHT22;26951;47.338;9.196;2024-01-15T06:35:41;-0.50;58.30
41220;DHT22;26951;47.338;9.196;2024-01-15T06:38:25;-0.50;58.10
41220;DHT22;26951;47.338;9.196;2024-01-15T06:41:09;-0.50;58.00
41220;DHT22;26951;47.338;9.196;2024-01-15T06:43:53;-0.60;57.90
41220;DHT22;26951;47.338;9.196;2024-01-15T06:46:42;-0.60;58.20
41220;DHT22;26951;47.338;9.196;2024-01-15T06:49:26;-0.60;58.60
41220;DHT22;26951;47.338;9.196;2024-01-15T06:52:10;-0.60;58.30
41220;DHT22;26951;47.338;9.196;2024-01-15T06:54:56;-0.60;58.80
41220;DHT22;26951;47.338;9.196;2024-01-15T06:57:40;-0.60;58.20
41220;DHT22;26951;47.338;9.196;2024-01-15T07:00:24;-0.60;58.20
41220;DHT22;26951;47.338;9.196;2024-01-15T07:03:08;-0.50;59.30
41220;DHT22;26951;47.338;9.196;2024-01-15T07:05:52;-0.60;58.70
41220;DHT22;26951;47.338;9.196;2024-01-15T07:08:36;-0.60;59.10
41220;DHT22;26951;47.338;9.196;2024-01-15T07:11:20;-0.60;59.20
41220;DHT22;26951;47.338;9.196;2024-01-15T07:14:04;-0.60;58.70
41220;DHT22;26951;47.338;9.196;2024-01-15T07:16:49;-0.70;59.10
41220;DHT22;26951;47.338;9.196;2024-01-15T07:19:33;-0.70;58.60
41220;DHT22;26951;47.338;9.196;2024-01-15T07:22:17;-0.70;59.50
41220;DHT22;26951;47.338;9.196;2024-01-15T07:25:01;-0.70;59.50
41220;DHT22;26951;47.338;9.196;2024-01-15T07:27:46;-0.70;59.60
41220;DHT22;26951;47.338;9.196;2024-01-15T07:30:31;-0.70;59.50
41220;DHT22;26951;47.338;9.196;2024-01-15T07:33:15;-0.80;59.40
41220;DHT22;26951;47.338;9.196;2024-01-15T07:35:59;-0.70;60.00
41220;DHT22;26951;47.338;9.196;2024-01-15T07:38:43;-0.70;59.50
41220;DHT22;26951;47.338;9.196;2024-01-15T07:41:27;-0.80;59.40
41220;DHT22;26951;47.338;9.196;2024-01-15T07:44:12;-0.80;59.10
41220;DHT22;26951;47.338;9.196;2024-01-15T07:46:56;-0.80;58.80
41220;DHT22;26951;47.338;9.196;2024-01-15T07:49:40;-0.80;59.60
41220;DHT22;26951;47.338;9.196;2024-01-15T07:52:24;-0.80;59.70
41220;DHT22;26951;47.338;9.196;2024-01-15T07:55:08;-0.80;59.70
41220;DHT22;26951;47.338;9.196;2024-01-15T07:57:52;-0.80;59.70
41220;DHT22;26951;47.338;9.196;2024-01-15T08:00:37;-0.80;59.70
41220;DHT22;26951;47.338;9.196;2024-01-15T08:03:22;-0.80;59.60
41220;DHT22;26951;47.338;9.196;2024-01-15T08:06:06;-0.90;58.90
41220;DHT22;26951;47.338;9.196;2024-01-15T08:08:53;-0.90;60.30
41220;DHT22;26951;47.338;9.196;2024-01-15T08:11:40;-0.90;60.60
41220;DHT22;26951;47.338;9.196;2024-01-15T08:14:25;-0.90;60.20
41220;DHT22;26951;47.338;9.196;2024-01-15T08:17:09;-0.90;59.80
41220;DHT22;26951;47.338;9.196;2024-01-15T08:19:54;-0.90;60.00
41220;DHT22;26951;47.338;9.196;2024-01-15T08:22:39;-0.90;60.90
41220;DHT22;26951;47.338;9.196;2024-01-15T08:25:23;-0.90;60.00
41220;DHT22;26951;47.338;9.196;2024-01-15T08:28:08;-0.90;60.10
41220;DHT22;26951;47.338;9.196;2024-01-15T08:30:52;-0.80;60.60
41220;DHT22;26951;47.338;9.196;2024-01-15T08:33:36;-0.80;60.90
41220;DHT22;26951;47.338;9.196;2024-01-15T08:36:21;-0.90;59.70
41220;DHT22;26951;47.338;9.196;2024-01-15T08:39:05;-0.80;60.30
41220;DHT22;26951;47.338;9.196;2024-01-15T08:41:50;-0.80;60.50
41220;DHT22;26951;47.338;9.196;2024-01-15T08:44:34;-0.80;60.00
41220;DHT22;26951;47.338;9.196;2024-01-15T08:47:18;-0.80;59.70
41220;DHT22;26951;47.338;9.196;2024-01-15T08:50:03;-0.70;59.30
41220;DHT22;26951;47.338;9.196;2024-01-15T08:52:48;-0.70;59.80
41220;DHT22;26951;47.338;9.196;2024-01-15T08:55:32;-0.70;60.50
41220;DHT22;26951;47.338;9.196;2024-01-15T08:58:17;-0.80;60.70
41220;DHT22;26951;47.338;9.196;2024-01-15T09:01:01;-0.70;61.00
41220;DHT22;26951;47.338;9.196;2024-01-15T09:03:45;-0.60;60.50
41220;DHT22;26951;47.338;9.196;2024-01-15T09:06:30;-0.60;60.80
41220;DHT22;26951;47.338;9.196;2024-01-15T09:09:14;-0.60;60.80
41220;DHT22;26951;47.338;9.196;2024-01-15T09:11:58;-0.60;61.50
41220;DHT22;26951;47.338;9.196;2024-01-15T09:14:42;-0.60;61.00
41220;DHT22;26951;47.338;9.196;2024-01-15T09:17:26;-0.50;60.60
41220;DHT22;26951;47.338;9.196;2024-01-15T09:20:11;-0.50;60.70
41220;DHT22;26951;47.338;9.196;2024-01-15T09:22:55;-0.50;59.60
41220;DHT22;26951;47.338;9.196;2024-01-15T09:25:40;-0.50;60.40
41220;DHT22;26951;47.338;9.196;2024-01-15T09:28:24;-0.50;59.70
41220;DHT22;26951;47.338;9.196;2024-01-15T09:31:08;-0.40;59.60
41220;DHT22;26951;47.338;9.196;2024-01-15T09:33:52;-0.40;58.70
41220;DHT22;26951;47.338;9.196;2024-01-15T09:36:40;-0.50;58.80
41220;DHT22;26951;47.338;9.196;2024-01-15T09:39:27;-0.50;59.10
41220;DHT22;26951;47.338;9.196;2024-01-15T09:42:11;-0.60;58.60
41220;DHT22;26951;47.338;9.196;2024-01-15T09:44:56;-0.50;59.20
41220;DHT22;26951;47.338;9.196;2024-01-15T09:47:41;-0.60;58.50
41220;DHT22;26951;47.338;9.196;2024-01-15T09:50:26;-0.60;57.40
41220;DHT22;26951;47.338;9.196;2024-01-15T09:53:10;-0.60;57.60
41220;DHT22;26951;47.338;9.196;2024-01-15T09:55:54;-0.60;56.60
41220;DHT22;26951;47.338;9.196;2024-01-15T09:58:39;-0.70;55.70
41220;DHT22;26951;47.338;9.196;2024-01-15T10:01:26;-0.70;53.80
41220;DHT22;26951;47.338;9.196;2024-01-15T10:04:11;-0.80;54.10
41220;DHT22;26951;47.338;9.196;2024-01-15T10:06:57;-0.80;53.30
41220;DHT22;26951;47.338;9.196;2024-01-15T10:09:44;-0.90;52.40
41220;DHT22;26951;47.338;9.196;2024-01-15T10:12:30;-0.80;52.80
41220;DHT22;26951;47.338;9.196;2024-01-15T10:15:14;-0.90;54.20
41220;DHT22;26951;47.338;9.196;2024-01-15T10:17:58;-0.80;54.40
41220;DHT22;26951;47.338;9.196;2024-01-15T10:20:43;-0.80;53.60
41220;DHT22;26951;47.338;9.196;2024-01-15T10:23:27;-0.70;53.50
41220;DHT22;26951;47.338;9.196;2024-01-15T10:26:12;-0.70;53.10
41220;DHT22;26951;47.338;9.196;2024-01-15T10:28:56;-0.70;53.10
41220;DHT22;26951;47.338;9.196;2024-01-15T10:31:40;-0.60;52.90
41220;DHT22;26951;47.338;9.196;2024-01-15T10:34:25;-0.60;53.80
41220;DHT22;26951;47.338;9.196;2024-01-15T10:37:09;-0.60;53.40
41220;DHT22;26951;47.338;9.196;2024-01-15T10:39:53;-0.60;53.70
41220;DHT22;26951;47.338;9.196;2024-01-15T10:42:37;-0.60;53.80
41220;DHT22;26951;47.338;9.196;2024-01-15T10:45:22;-0.60;53.70
41220;DHT22;26951;47.338;9.196;2024-01-15T10:48:07;-0.60;53.40
41220;DHT22;26951;47.338;9.196;2024-01-15T10:50:52;-0.50;53.30
41220;DHT22;26951;47.338;9.196;2024-01-15T10:53:39;-0.50;54.00
41220;DHT22;26951;47.338;9.196;2024-01-15T10:56:27;-0.50;53.80
41220;DHT22;26951;47.338;9.196;2024-01-15T10:59:13;-0.40;52.90
41220;DHT22;26951;47.338;9.196;2024-01-15T11:01:57;-0.30;52.60
41220;DHT22;26951;47.338;9.196;2024-01-15T11:04:41;-0.30;52.20
41220;DHT22;26951;47.338;9.196;2024-01-15T11:07:26;-0.30;53.20
41220;DHT22;26951;47.338;9.196;2024-01-15T11:10:44;-0.30;53.20
41220;DHT22;26951;47.338;9.196;2024-01-15T11:16:17;-0.40;53.30
41220;DHT22;26951;47.338;9.196;2024-01-15T11:19:03;-0.30;53.30
41220;DHT22;26951;47.338;9.196;2024-01-15T11:21:47;-0.30;53.60
41220;DHT22;26951;47.338;9.196;2024-01-15T11:24:39;-0.30;53.30
41220;DHT22;26951;47.338;9.196;2024-01-15T11:27:42;-0.30;54.00
41220;DHT22;26951;47.338;9.196;2024-01-15T11:30:27;-0.30;54.00
41220;DHT22;26951;47.338;9.196;2024-01-15T11:33:33;-0.20;54.00
41220;DHT22;26951;47.338;9.196;2024-01-15T11:36:18;-0.30;53.90
41220;DHT22;26951;47.338;9.196;2024-01-15T11:42:13;-0.20;53.80
41220;DHT22;26951;47.338;9.196;2024-01-15T11:44:58;-0.20;53.10
41220;DHT22;26951;47.338;9.196;2024-01-15T11:50:56;-0.20;53.00
41220;DHT22;26951;47.338;9.196;2024-01-15T11:53:45;-0.20;54.00
41220;DHT22;26951;47.338;9.196;2024-01-15T11:56:31;-0.20;53.40
41220;DHT22;26951;47.338;9.196;2024-01-15T11:59:15;-0.20;52.70
41220;DHT22;26951;47.338;9.196;2024-01-15T12:01:59;-0.30;53.60
41220;DHT22;26951;47.338;9.196;2024-01-15T12:04:44;-0.30;53.40
41220;DHT22;26951;47.338;9.196;2024-01-15T12:07:28;-0.20;53.20
41220;DHT22;26951;47.338;9.196;2024-01-15T12:10:20;-0.20;52.70
41220;DHT22;26951;47.338;9.196;2024-01-15T12:13:15;-0.20;51.80
41220;DHT22;26951;47.338;9.196;2024-01-15T12:16:01;-0.10;51.10
41220;DHT22;26951;47.338;9.196;2024-01-15T12:18:46;-0.10;50.80
41220;DHT22;26951;47.338;9.196;2024-01-15T12:21:30;-0.10;52.30
41220;DHT22;26951;47.338;9.196;2024-01-15T12:24:14;-0.20;51.30
41220;DHT22;26951;47.338;9.196;2024-01-15T12:27:00;-0.10;51.40
41220;DHT22;26951;47.338;9.196;2024-01-15T12:29:45;-0.10;51.40
41220;DHT22;26951;47.338;9.196;2024-01-15T12:32:29;-0.20;51.70
41220;DHT22;26951;47.338;9.196;2024-01-15T12:35:14;-0.20;51.60
41220;DHT22;26951;47.338;9.196;2024-01-15T12:38:02;-0.20;51.60
41220;DHT22;26951;47.338;9.196;2024-01-15T12:40:47;-0.20;51.80
41220;DHT22;26951;47.338;9.196;2024-01-15T12:43:31;-0.20;51.50
41220;DHT22;26951;47.338;9.196;2024-01-15T12:46:16;-0.20;51.90
41220;DHT22;26951;47.338;9.196;2024-01-15T12:49:04;-0.20;52.00
41220;DHT22;26951;47.338;9.196;2024-01-15T12:51:56;-0.20;52.10
41220;DHT22;26951;47.338;9.196;2024-01-15T12:54:40;-0.20;51.80
41220;DHT22;26951;47.338;9.196;2024-01-15T12:57:24;-0.30;52.10
41220;DHT22;26951;47.338;9.196;2024-01-15T13:00:08;-0.30;52.30
41220;DHT22;26951;47.338;9.196;2024-01-15T13:02:57;-0.30;52.20
41220;DHT22;26951;47.338;9.196;2024-01-15T13:05:41;-0.30;52.90
41220;DHT22;26951;47.338;9.196;2024-01-15T13:08:25;-0.30;53.00
41220;DHT22;26951;47.338;9.196;2024-01-15T13:11:12;-0.30;52.40
41220;DHT22;26951;47.338;9.196;2024-01-15T13:13:56;-0.30;52.90
41220;DHT22;26951;47.338;9.196;2024-01-15T13:16:41;-0.40;53.00
41220;DHT22;26951;47.338;9.196;2024-01-15T13:19:26;-0.30;53.00
41220;DHT22;26951;47.338;9.196;2024-01-15T13:22:10;-0.30;53.20
41220;DHT22;26951;47.338;9.196;2024-01-15T13:24:58;-0.30;53.70
41220;DHT22;26951;47.338;9.196;2024-01-15T13:27:42;-0.30;53.30
41220;DHT22;26951;47.338;9.196;2024-01-15T13:30:26;-0.30;53.60
41220;DHT22;26951;47.338;9.196;2024-01-15T13:33:10;-0.30;53.80
41220;DHT22;26951;47.338;9.196;2024-01-15T13:35:55;-0.30;53.50
41220;DHT22;26951;47.338;9.196;2024-01-15T13:38:39;-0.30;53.60
41220;DHT22;26951;47.338;9.196;2024-01-15T13:41:23;-0.20;53.20
41220;DHT22;26951;47.338;9.196;2024-01-15T13:44:11;-0.30;53.90
41220;DHT22;26951;47.338;9.196;2024-01-15T13:46:55;-0.30;53.20
41220;DHT22;26951;47.338;9.196;2024-01-15T13:49:38;-0.30;52.90
41220;DHT22;26951;47.338;9.196;2024-01-15T13:52:23;-0.30;53.10
41220;DHT22;26951;47.338;9.196;2024-01-15T13:55:08;-0.30;53.40
41220;DHT22;26951;47.338;9.196;2024-01-15T13:57:52;-0.30;53.70
41220;DHT22;26951;47.338;9.196;2024-01-15T14:00:36;-0.30;53.90
41220;DHT22;26951;47.338;9.196;2024-01-15T14:03:21;-0.20;53.50
41220;DHT22;26951;47.338;9.196;2024-01-15T14:06:05;-0.20;54.00
41220;DHT22;26951;47.338;9.196;2024-01-15T14:08:52;-0.20;53.70
41220;DHT22;26951;47.338;9.196;2024-01-15T14:11:37;-0.20;52.90
41220;DHT22;26951;47.338;9.196;2024-01-15T14:14:21;-0.20;52.60
41220;DHT22;26951;47.338;9.196;2024-01-15T14:17:05;-0.20;52.80
41220;DHT22;26951;47.338;9.196;2024-01-15T14:19:49;-0.20;52.90
41220;DHT22;26951;47.338;9.196;2024-01-15T14:22:33;-0.20;53.00
41220;DHT22;26951;47.338;9.196;2024-01-15T14:25:18;-0.20;52.90
41220;DHT22;26951;47.338;9.196;2024-01-15T14:28:03;-0.10;52.90
41220;DHT22;26951;47.338;9.196;2024-01-15T14:30:47;-0.10;53.00
41220;DHT22;26951;47.338;9.196;2024-01-15T14:33:31;-0.10;52.80
41220;DHT22;26951;47.338;9.196;2024-01-15T14:36:15;-0.20;53.20
41220;DHT22;26951;47.338;9.196;2024-01-15T14:38:59;-0.20;53.10
41220;DHT22;26951;47.338;9.196;2024-01-15T14:41:43;-0.20;53.20
41220;DHT22;26951;47.338;9.196;2024-01-15T14:44:28;0.00;52.70
41220;DHT22;26951;47.338;9.196;2024-01-15T14:47:16;0.00;52.90
41220;DHT22;26951;47.338;9.196;2024-01-15T14:50:00;0.00;52.10
41220;DHT22;26951;47.338;9.196;2024-01-15T14:52:45;0.00;52.40
41220;DHT22;26951;47.338;9.196;2024-01-15T14:55:30;-0.10;52.60
41220;DHT22;26951;47.338;9.196;2024-01-15T14:58:14;-0.20;53.10
41220;DHT22;26951;47.338;9.196;2024-01-15T15:00:59;-0.10;52.60
41220;DHT22;26951;47.338;9.196;2024-01-15T15:03:43;-0.10;53.10
41220;DHT22;26951;47.338;9.196;2024-01-15T15:06:28;0.00;53.10
41220;DHT22;26951;47.338;9.196;2024-01-15T15:09:12;-0.10;53.40
41220;DHT22;26951;47.338;9.196;2024-01-15T15:11:56;0.00;53.10
41220;DHT22;26951;47.338;9.196;2024-01-15T15:14:40;0.00;52.80
41220;DHT22;26951;47.338;9.196;2024-01-15T15:17:24;0.10;53.10
41220;DHT22;26951;47.338;9.196;2024-01-15T15:20:09;0.00;53.00
41220;DHT22;26951;47.338;9.196;2024-01-15T15:22:53;-0.10;53.00
41220;DHT22;26951;47.338;9.196;2024-01-15T15:25:39;0.00;52.80
41220;DHT22;26951;47.338;9.196;2024-01-15T15:28:23;0.00;53.10
41220;DHT22;26951;47.338;9.196;2024-01-15T15:31:08;0.00;53.00
41220;DHT22;26951;47.338;9.196;2024-01-15T15:33:52;0.00;52.70
41220;DHT22;26951;47.338;9.196;2024-01-15T15:36:36;-0.10;52.60
41220;DHT22;26951;47.338;9.196;2024-01-15T15:39:20;-0.10;52.40
41220;DHT22;26951;47.338;9.196;2024-01-15T15:42:04;0.00;52.50
41220;DHT22;26951;47.338;9.196;2024-01-15T15:44:49;-0.10;53.00
41220;DHT22;26951;47.338;9.196;2024-01-15T15:47:34;-0.10;53.00
41220;DHT22;26951;47.338;9.196;2024-01-15T15:50:18;-0.10;52.70
41220;DHT22;26951;47.338;9.196;2024-01-15T15:53:02;0.00;52.90
41220;DHT22;26951;47.338;9.196;2024-01-15T15:55:47;-0.10;53.30
41220;DHT22;26951;47.338;9.196;2024-01-15T15:58:31;0.00;53.00
41220;DHT22;26951;47.338;9.196;2024-01-15T16:01:16;0.00;53.10
41220;DHT22;26951;47.338;9.196;2024-01-15T16:04:00;-0.10;53.30
41220;DHT22;26951;47.338;9.196;2024-01-15T16:06:44;-0.10;54.00
41220;DHT22;26951;47.338;9.196;2024-01-15T16:09:30;-0.10;54.00
41220;DHT22;26951;47.338;9.196;2024-01-15T16:12:15;-0.10;53.60
41220;DHT22;26951;47.338;9.196;2024-01-15T16:15:02;-0.10;53.90
41220;DHT22;26951;47.338;9.196;2024-01-15T16:17:47;-0.10;54.10
41220;DHT22;26951;47.338;9.196;2024-01-15T16:20:32;-0.10;53.90
41220;DHT22;26951;47.338;9.196;2024-01-15T16:23:16;-0.10;54.30
41220;DHT22;26951;47.338;9.196;2024-01-15T16:26:01;-0.20;54.20
41220;DHT22;26951;47.338;9.196;2024-01-15T16:28:45;-0.10;54.10
41220;DHT22;26951;47.338;9.196;2024-01-15T16:31:29;0.00;53.90
41220;DHT22;26951;47.338;9.196;2024-01-15T16:34:13;0.00;53.90
41220;DHT22;26951;47.338;9.196;2024-01-15T16:36:57;0.00;53.50
41220;DHT22;26951;47.338;9.196;2024-01-15T16:39:41;0.00;53.30
41220;DHT22;26951;47.338;9.196;2024-01-15T16:42:25;-0.10;53.40
41220;DHT22;26951;47.338;9.196;2024-01-15T16:45:09;-0.10;54.20
41220;DHT22;26951;47.338;9.196;2024-01-15T16:47:53;-0.10;54.70
41220;DHT22;26951;47.338;9.196;2024-01-15T16:50:38;0.00;54.40
41220;DHT22;26951;47.338;9.196;2024-01-15T16:53:22;-0.10;54.60
41220;DHT22;26951;47.338;9.196;2024-01-15T16:56:06;-0.10;54.40
41220;DHT22;26951;47.338;9.196;2024-01-15T16:58:50;-0.10;54.40
41220;DHT22;26951;47.338;9.196;2024-01-15T17:01:35;-0.10;54.60
41220;DHT22;26951;47.338;9.196;2024-01-15T17:04:19;-0.20;54.80
41220;DHT22;26951;47.338;9.196;2024-01-15T17:07:03;-0.10;55.40
41220;DHT22;26951;47.338;9.196;2024-01-15T17:09:47;-0.10;55.90
41220;DHT22;26951;47.338;9.196;2024-01-15T17:12:31;-0.20;56.40
41220;DHT22;26951;47.338;9.196;2024-01-15T17:15:16;-0.20;56.20
41220;DHT22;26951;47.338;9.196;2024-01-15T17:18:00;-0.20;56.30
41220;DHT22;26951;47.338;9.196;2024-01-15T17:20:44;-0.10;55.60
41220;DHT22;26951;47.338;9.196;2024-01-15T17:23:29;-0.10;55.70
41220;DHT22;26951;47.338;9.196;2024-01-15T17:26:14;-0.20;56.50
41220;DHT22;26951;47.338;9.196;2024-01-15T17:28:58;-0.20;56.60
41220;DHT22;26951;47.338;9.196;2024-01-15T17:31:42;-0.30;56.50
41220;DHT22;26951;47.338;9.196;2024-01-15T17:34:27;-0.20;56.50
41220;DHT22;26951;47.338;9.196;2024-01-15T17:37:10;-0.20;56.60
41220;DHT22;26951;47.338;9.196;2024-01-15T17:39:55;-0.20;55.20